createdAt,value
2016-08-12T00:00:27.377Z,47.70
2016-08-12T00:01:21.462Z,48.00
2016-08-12T00:02:26.758Z,47.90
2016-08-12T00:04:28.183Z,47.90
2016-08-12T00:05:36.539Z,48.00
2016-08-12T00:06:27.392Z,48.00
2016-08-12T00:07:33.477Z,48.10
2016-08-12T00:08:35.828Z,48.10
2016-08-12T00:09:34.504Z,47.90
2016-08-12T00:10:40.746Z,48.10
2016-08-12T00:11:21.795Z,48.00
2016-08-12T00:12:31.375Z,48.00
2016-08-12T00:13:27.681Z,48.00
2016-08-12T00:14:32.070Z,48.00
2016-08-12T00:15:28.542Z,48.00
2016-08-12T00:16:31.380Z,48.00
2016-08-12T00:17:23.446Z,48.10
2016-08-12T00:18:42.416Z,48.00
2016-08-12T00:19:33.960Z,48.00
2016-08-12T00:20:25.696Z,48.00
2016-08-12T00:21:20.496Z,48.10
2016-08-12T00:22:28.261Z,47.40
2016-08-12T00:23:22.304Z,48.20
2016-08-12T00:24:33.537Z,48.10
2016-08-12T00:25:34.965Z,48.00
2016-08-12T00:26:31.983Z,48.10
2016-08-12T00:27:21.500Z,48.20
2016-08-12T00:29:21.560Z,48.10
2016-08-12T00:30:34.670Z,48.60
2016-08-12T00:31:30.861Z,48.10
2016-08-12T00:32:31.129Z,48.10
2016-08-12T00:33:26.881Z,48.00
2016-08-12T00:34:26.351Z,48.10
2016-08-12T00:35:26.471Z,48.10
2016-08-12T00:36:37.022Z,48.20
2016-08-12T00:38:23.292Z,48.10
2016-08-12T00:40:38.200Z,48.20
2016-08-12T00:41:27.646Z,48.20
2016-08-12T00:42:39.639Z,48.10
2016-08-12T00:43:32.084Z,48.20
2016-08-12T00:44:34.448Z,48.20
2016-08-12T00:45:27.043Z,48.20
2016-08-12T00:46:27.483Z,48.20
2016-08-12T00:47:22.837Z,48.20
2016-08-12T00:48:31.811Z,48.20
2016-08-12T00:49:27.827Z,48.20
2016-08-12T00:50:28.913Z,48.20
2016-08-12T00:51:23.639Z,48.20
2016-08-12T00:52:38.248Z,48.20
2016-08-12T00:53:21.547Z,48.30
2016-08-12T00:54:21.731Z,48.30
2016-08-12T00:55:32.637Z,47.40
2016-08-12T00:56:32.215Z,48.20
2016-08-12T00:57:26.835Z,48.20
2016-08-12T00:58:31.599Z,48.30
2016-08-12T00:59:25.514Z,48.30
2016-08-12T01:00:33.693Z,48.40
2016-08-12T01:01:32.544Z,48.30
2016-08-12T01:02:29.156Z,48.40
2016-08-12T01:03:40.750Z,is
2016-08-12T01:04:38.053Z,48.40
2016-08-12T01:05:26.989Z,48.30
2016-08-12T01:06:32.381Z,48.50
2016-08-12T01:07:31.171Z,48.40
2016-08-12T01:08:38.120Z,48.40
2016-08-12T01:09:25.228Z,48.40
2016-08-12T01:11:34.409Z,48.40
2016-08-12T01:12:26.319Z,is
2016-08-12T01:13:26.820Z,is
2016-08-12T01:14:25.402Z,48.30
2016-08-12T01:15:31.435Z,48.30
2016-08-12T01:16:27.775Z,is
2016-08-12T01:17:26.826Z,48.40
2016-08-12T01:18:31.732Z,48.20
2016-08-12T01:19:37.422Z,48.40
2016-08-12T01:20:26.499Z,48.40
2016-08-12T01:21:22.846Z,48.40
2016-08-12T01:22:28.614Z,48.40
2016-08-12T01:23:34.418Z,48.40
2016-08-12T01:24:34.838Z,48.40
2016-08-12T01:25:35.468Z,48.50
2016-08-12T01:26:27.426Z,48.40
2016-08-12T01:27:30.358Z,48.50
2016-08-12T01:28:31.628Z,is
2016-08-12T01:29:27.351Z,48.50
2016-08-12T01:31:21.434Z,is
2016-08-12T01:33:28.978Z,48.60
2016-08-12T01:34:30.018Z,48.60
2016-08-12T01:35:25.830Z,48.20
2016-08-12T01:36:35.162Z,48.60
2016-08-12T01:37:32.814Z,48.60
2016-08-12T01:38:36.019Z,48.70
2016-08-12T01:39:31.962Z,48.50
2016-08-12T01:40:32.555Z,48.70
2016-08-12T01:41:20.867Z,48.70
2016-08-12T01:42:26.108Z,48.70
2016-08-12T01:45:34.986Z,48.70
2016-08-12T01:46:37.627Z,48.70
2016-08-12T01:49:28.019Z,48.80
2016-08-12T01:50:47.953Z,48.70
2016-08-12T01:51:20.507Z,48.70
2016-08-12T01:52:26.739Z,48.70
2016-08-12T01:53:26.864Z,48.70
2016-08-12T01:56:33.732Z,48.80
2016-08-12T01:57:26.512Z,48.80
2016-08-12T01:58:45.260Z,48.90
2016-08-12T01:59:33.241Z,48.70
2016-08-12T02:00:36.550Z,48.90
2016-08-12T02:01:22.139Z,48.90
2016-08-12T02:02:25.960Z,48.90
2016-08-12T02:03:26.849Z,48.80
2016-08-12T02:04:21.670Z,48.80
2016-08-12T02:05:32.470Z,49.00
2016-08-12T02:06:28.198Z,48.90
2016-08-12T02:07:26.254Z,48.90
2016-08-12T02:08:30.801Z,48.90
2016-08-12T02:09:26.898Z,48.90
2016-08-12T02:10:32.736Z,48.90
2016-08-12T02:11:30.589Z,48.90
2016-08-12T02:12:26.649Z,48.90
2016-08-12T02:13:32.251Z,48.90
2016-08-12T02:14:26.479Z,48.90
2016-08-12T02:15:26.825Z,48.40
2016-08-12T02:16:27.140Z,48.90
2016-08-12T02:17:27.826Z,49.00
2016-08-12T02:19:34.518Z,is
2016-08-12T02:20:36.512Z,48.90
2016-08-12T02:21:20.144Z,48.90
2016-08-12T02:22:27.412Z,48.90
2016-08-12T02:23:34.508Z,49.00
2016-08-12T02:24:26.037Z,48.10
2016-08-12T02:25:30.525Z,49.00
2016-08-12T02:26:27.191Z,49.00
2016-08-12T02:27:21.572Z,48.90
2016-08-12T02:28:28.352Z,49.00
2016-08-12T02:29:28.866Z,48.90
2016-08-12T02:30:34.476Z,49.00
2016-08-12T02:32:27.042Z,49.10
2016-08-12T02:33:17.960Z,49.10
2016-08-12T02:34:20.949Z,49.20
2016-08-12T02:35:28.897Z,49.00
2016-08-12T02:36:31.755Z,48.50
2016-08-12T02:37:21.639Z,49.00
2016-08-12T02:38:28.116Z,49.20
2016-08-12T02:39:30.675Z,49.10
2016-08-12T02:41:29.431Z,49.20
2016-08-12T02:42:25.460Z,49.10
2016-08-12T02:43:38.229Z,49.20
2016-08-12T02:47:33.794Z,49.20
2016-08-12T02:48:27.865Z,49.20
2016-08-12T02:50:28.298Z,49.30
2016-08-12T02:51:21.782Z,49.20
2016-08-12T02:52:34.675Z,49.20
2016-08-12T02:53:30.049Z,49.20
2016-08-12T02:54:31.812Z,48.70
2016-08-12T02:55:32.276Z,49.30
2016-08-12T02:56:27.024Z,49.20
2016-08-12T02:57:20.892Z,49.30
2016-08-12T02:58:27.386Z,49.20
2016-08-12T02:59:31.697Z,49.30
2016-08-12T03:00:35.595Z,49.30
2016-08-12T03:01:42.242Z,49.30
2016-08-12T03:02:31.974Z,49.40
2016-08-12T03:03:24.043Z,49.30
2016-08-12T03:04:30.087Z,49.40
2016-08-12T03:05:35.888Z,49.40
2016-08-12T03:06:27.525Z,49.40
2016-08-12T03:07:27.249Z,49.40
2016-08-12T03:08:37.074Z,49.40
2016-08-12T03:09:26.946Z,49.10
2016-08-12T03:10:32.309Z,49.40
2016-08-12T03:11:25.935Z,49.30
2016-08-12T03:12:29.062Z,49.40
2016-08-12T03:13:28.683Z,49.40
2016-08-12T03:14:33.739Z,49.50
2016-08-12T03:16:27.425Z,49.50
2016-08-12T03:17:27.878Z,49.40
2016-08-12T03:18:26.474Z,49.50
2016-08-12T03:19:30.877Z,49.40
2016-08-12T03:20:31.597Z,49.40
2016-08-12T03:21:26.144Z,49.50
2016-08-12T03:22:26.333Z,49.50
2016-08-12T03:23:40.195Z,49.50
2016-08-12T03:25:23.919Z,is
2016-08-12T03:26:31.672Z,49.50
2016-08-12T03:27:30.135Z,is
2016-08-12T03:28:27.426Z,49.60
2016-08-12T03:29:31.600Z,49.50
2016-08-12T03:30:32.071Z,49.60
2016-08-12T03:31:20.413Z,49.60
2016-08-12T03:32:31.337Z,49.50
2016-08-12T03:33:25.567Z,49.60
2016-08-12T03:34:31.612Z,49.50
2016-08-12T03:35:28.220Z,49.60
2016-08-12T03:37:28.146Z,49.60
2016-08-12T03:38:30.851Z,49.50
2016-08-12T03:39:40.116Z,49.50
2016-08-12T03:40:27.799Z,is
2016-08-12T03:41:27.356Z,49.50
2016-08-12T03:42:37.182Z,49.50
2016-08-12T03:43:27.944Z,49.50
2016-08-12T03:44:26.831Z,49.50
2016-08-12T03:45:38.297Z,49.50
2016-08-12T03:46:27.331Z,49.40
2016-08-12T03:47:28.696Z,49.40
2016-08-12T03:48:30.094Z,49.40
2016-08-12T03:49:21.852Z,49.30
2016-08-12T03:50:30.618Z,49.40
2016-08-12T03:52:32.083Z,49.30
2016-08-12T03:53:32.433Z,49.40
2016-08-12T03:54:44.524Z,49.30
2016-08-12T03:55:26.946Z,49.40
2016-08-12T03:56:26.103Z,49.30
2016-08-12T03:57:34.705Z,49.30
2016-08-12T03:58:27.374Z,49.20
2016-08-12T03:59:30.775Z,49.30
2016-08-12T04:00:24.927Z,49.20
2016-08-12T04:02:31.662Z,49.30
2016-08-12T04:04:27.248Z,49.30
2016-08-12T04:06:26.926Z,49.30
2016-08-12T04:07:25.926Z,49.30
2016-08-12T04:08:24.014Z,49.30
2016-08-12T04:09:28.182Z,49.30
2016-08-12T04:10:32.127Z,is
2016-08-12T04:11:22.601Z,49.30
2016-08-12T04:12:31.030Z,49.30
2016-08-12T04:13:26.860Z,49.50
2016-08-12T04:14:27.598Z,49.30
2016-08-12T04:15:30.876Z,49.30
2016-08-12T04:16:27.816Z,49.20
2016-08-12T04:18:32.129Z,49.20
2016-08-12T04:19:30.631Z,49.20
2016-08-12T04:20:29.295Z,49.20
2016-08-12T04:21:23.225Z,49.30
2016-08-12T04:22:34.771Z,49.20
2016-08-12T04:23:27.775Z,49.30
2016-08-12T04:24:25.959Z,49.20
2016-08-12T04:25:35.680Z,49.30
2016-08-12T04:26:36.253Z,49.30
2016-08-12T04:27:27.930Z,49.20
2016-08-12T04:28:37.862Z,is
2016-08-12T04:29:29.050Z,49.20
2016-08-12T04:30:27.194Z,49.30
2016-08-12T04:31:27.814Z,49.30
2016-08-12T04:32:27.605Z,48.60
2016-08-12T04:33:34.599Z,49.40
2016-08-12T04:34:36.056Z,49.70
2016-08-12T04:35:39.391Z,49.30
2016-08-12T04:36:29.197Z,49.30
2016-08-12T04:37:31.508Z,49.30
2016-08-12T04:38:28.306Z,49.40
2016-08-12T04:39:26.685Z,49.50
2016-08-12T04:40:37.039Z,49.50
2016-08-12T04:41:27.977Z,49.70
2016-08-12T04:42:27.655Z,49.70
2016-08-12T04:43:39.659Z,49.90
2016-08-12T04:44:36.120Z,49.70
2016-08-12T04:45:31.391Z,49.60
2016-08-12T04:46:27.621Z,49.60
2016-08-12T04:48:28.463Z,49.60
2016-08-12T04:49:26.789Z,49.50
2016-08-12T04:50:22.731Z,50.10
2016-08-12T04:51:21.354Z,49.00
2016-08-12T04:52:27.263Z,49.50
2016-08-12T04:53:28.543Z,49.60
2016-08-12T04:55:36.291Z,49.50
2016-08-12T04:56:27.322Z,49.50
2016-08-12T04:57:26.441Z,49.50
2016-08-12T04:58:27.342Z,49.50
2016-08-12T04:59:37.156Z,49.50
2016-08-12T05:00:26.442Z,49.60
2016-08-12T05:01:31.464Z,49.70
2016-08-12T05:02:26.728Z,49.70
2016-08-12T05:03:25.960Z,49.70
2016-08-12T05:04:28.233Z,49.60
2016-08-12T05:05:27.786Z,49.60
2016-08-12T05:07:24.680Z,49.60
2016-08-12T05:08:31.262Z,49.60
2016-08-12T05:09:26.653Z,49.60
2016-08-12T05:10:26.633Z,is
2016-08-12T05:11:32.940Z,49.50
2016-08-12T05:12:26.973Z,49.60
2016-08-12T05:13:21.546Z,49.60
2016-08-12T05:15:28.399Z,49.60
2016-08-12T05:16:51.890Z,48.80
2016-08-12T05:17:40.190Z,49.60
2016-08-12T05:18:34.468Z,49.50
2016-08-12T05:19:25.426Z,is
2016-08-12T05:20:26.338Z,49.50
2016-08-12T05:21:34.323Z,49.60
2016-08-12T05:22:21.008Z,is
2016-08-12T05:23:31.356Z,49.70
2016-08-12T05:24:27.278Z,48.80
2016-08-12T05:25:31.261Z,49.60
2016-08-12T05:26:27.922Z,49.50
2016-08-12T05:27:35.376Z,49.60
2016-08-12T05:28:24.473Z,49.60
2016-08-12T05:29:34.483Z,49.10
2016-08-12T05:30:29.205Z,48.80
2016-08-12T05:32:32.003Z,49.50
2016-08-12T05:33:27.018Z,49.60
2016-08-12T05:34:31.611Z,49.60
2016-08-12T05:35:31.257Z,49.70
2016-08-12T05:36:28.109Z,49.50
2016-08-12T05:37:25.994Z,49.50
2016-08-12T05:38:17.124Z,49.50
2016-08-12T05:39:26.817Z,is
2016-08-12T05:40:25.176Z,49.70
2016-08-12T05:41:20.716Z,49.60
2016-08-12T05:42:20.596Z,49.60
2016-08-12T05:43:26.206Z,49.60
2016-08-12T05:44:27.313Z,49.70
2016-08-12T05:45:31.887Z,49.80
2016-08-12T05:46:26.999Z,49.90
2016-08-12T05:47:33.656Z,49.90
2016-08-12T05:48:27.127Z,50.00
2016-08-12T05:49:27.895Z,50.00
2016-08-12T05:50:22.683Z,50.10
2016-08-12T05:51:21.208Z,50.00
2016-08-12T05:52:24.514Z,is
2016-08-12T05:53:32.512Z,50.20
2016-08-12T05:54:30.114Z,is
2016-08-12T05:55:31.896Z,50.10
2016-08-12T05:56:31.997Z,50.20
2016-08-12T05:57:25.884Z,50.20
2016-08-12T05:58:23.833Z,50.20
2016-08-12T05:59:31.135Z,50.20
2016-08-12T06:00:30.506Z,50.30
2016-08-12T06:01:27.693Z,50.30
2016-08-12T06:02:28.781Z,50.20
2016-08-12T06:03:24.891Z,50.30
2016-08-12T06:05:21.264Z,50.30
2016-08-12T06:07:32.510Z,50.30
2016-08-12T06:08:31.373Z,50.40
2016-08-12T06:09:31.488Z,50.30
2016-08-12T06:11:24.398Z,50.40
2016-08-12T06:12:22.918Z,50.50
2016-08-12T06:13:36.663Z,50.40
2016-08-12T06:14:26.372Z,50.40
2016-08-12T06:15:37.727Z,50.40
2016-08-12T06:16:25.629Z,50.30
2016-08-12T06:17:26.125Z,50.30
2016-08-12T06:18:26.856Z,50.50
2016-08-12T06:20:31.968Z,50.60
2016-08-12T06:21:22.458Z,50.70
2016-08-12T06:22:35.756Z,50.50
2016-08-12T06:23:21.070Z,50.60
2016-08-12T06:24:21.456Z,50.70
2016-08-12T06:25:24.845Z,50.90
2016-08-12T06:26:29.138Z,50.90
2016-08-12T06:27:26.083Z,51.00
2016-08-12T06:28:18.867Z,51.00
2016-08-12T06:29:22.947Z,51.20
2016-08-12T06:30:26.827Z,51.70
2016-08-12T06:31:17.926Z,51.20
2016-08-12T06:32:26.744Z,51.20
2016-08-12T06:33:28.686Z,51.20
2016-08-12T06:34:37.110Z,51.20
2016-08-12T06:35:28.199Z,51.30
2016-08-12T06:36:24.379Z,51.20
2016-08-12T06:37:34.777Z,51.30
2016-08-12T06:38:26.605Z,51.20
2016-08-12T06:39:21.126Z,51.30
2016-08-12T06:40:25.739Z,51.20
2016-08-12T06:41:31.155Z,51.30
2016-08-12T06:43:27.186Z,51.40
2016-08-12T06:44:26.163Z,51.30
2016-08-12T06:45:27.108Z,51.40
2016-08-12T06:46:27.645Z,51.50
2016-08-12T06:47:32.799Z,51.50
2016-08-12T06:48:24.665Z,51.70
2016-08-12T06:50:27.085Z,51.50
2016-08-12T06:51:26.539Z,51.50
2016-08-12T06:52:32.465Z,is
2016-08-12T06:53:31.469Z,51.50
2016-08-12T06:54:26.117Z,51.50
2016-08-12T06:55:28.194Z,51.60
2016-08-12T06:56:29.374Z,51.60
2016-08-12T06:57:28.426Z,51.50
2016-08-12T06:58:30.513Z,51.50
2016-08-12T06:59:30.304Z,51.60
2016-08-12T07:00:20.965Z,51.50
2016-08-12T07:01:35.846Z,51.50
2016-08-12T07:02:27.460Z,51.50
2016-08-12T07:03:27.401Z,51.50
2016-08-12T07:05:26.095Z,51.50
2016-08-12T07:06:27.663Z,51.50
2016-08-12T07:07:28.226Z,51.60
2016-08-12T07:08:29.146Z,51.60
2016-08-12T07:09:28.529Z,51.50
2016-08-12T07:10:35.359Z,51.60
2016-08-12T07:11:29.589Z,51.50
2016-08-12T07:12:26.747Z,51.50
2016-08-12T07:13:32.572Z,51.60
2016-08-12T07:14:26.852Z,50.70
2016-08-12T07:15:28.017Z,51.50
2016-08-12T07:16:25.985Z,51.50
2016-08-12T07:17:22.788Z,51.50
2016-08-12T07:18:27.853Z,51.50
2016-08-12T07:20:24.792Z,51.40
2016-08-12T07:21:19.919Z,51.50
2016-08-12T07:22:28.060Z,51.30
2016-08-12T07:23:25.135Z,51.40
2016-08-12T07:24:26.175Z,51.40
2016-08-12T07:25:31.620Z,51.50
2016-08-12T07:26:37.841Z,51.50
2016-08-12T07:27:24.279Z,51.60
2016-08-12T07:28:21.780Z,51.50
2016-08-12T07:29:23.740Z,51.60
2016-08-12T07:30:27.938Z,51.50
2016-08-12T07:31:22.543Z,51.70
2016-08-12T07:32:24.513Z,51.60
2016-08-12T07:33:26.054Z,51.50
2016-08-12T07:35:27.885Z,51.60
2016-08-12T07:36:26.793Z,51.70
2016-08-12T07:37:21.373Z,51.70
2016-08-12T07:38:26.985Z,51.60
2016-08-12T07:39:31.832Z,50.80
2016-08-12T07:40:28.005Z,51.60
2016-08-12T07:41:26.134Z,51.50
2016-08-12T07:42:31.036Z,50.90
2016-08-12T07:43:30.711Z,51.70
2016-08-12T07:44:22.535Z,51.60
2016-08-12T07:45:21.885Z,51.60
2016-08-12T07:46:26.794Z,51.60
2016-08-12T07:47:27.014Z,51.50
2016-08-12T07:48:26.095Z,51.60
2016-08-12T07:50:25.360Z,52.10
2016-08-12T07:51:27.761Z,52.20
2016-08-12T07:52:23.214Z,52.40
2016-08-12T07:53:25.366Z,52.40
2016-08-12T07:54:20.701Z,52.30
2016-08-12T07:55:31.918Z,52.20
2016-08-12T07:56:20.383Z,52.20
2016-08-12T07:57:26.749Z,52.10
2016-08-12T07:58:22.101Z,51.90
2016-08-12T07:59:20.816Z,52.10
2016-08-12T08:00:20.039Z,51.90
2016-08-12T08:01:37.690Z,51.90
2016-08-12T08:02:22.660Z,51.90
2016-08-12T08:03:24.623Z,51.80
2016-08-12T08:04:15.775Z,51.80
2016-08-12T08:05:26.278Z,52.00
2016-08-12T08:06:21.192Z,51.80
2016-08-12T08:07:32.022Z,51.90
2016-08-12T08:08:26.920Z,51.80
2016-08-12T08:09:20.967Z,51.80
2016-08-12T08:10:31.874Z,51.70
2016-08-12T08:11:30.175Z,52.00
2016-08-12T08:12:27.734Z,51.90
2016-08-12T08:13:23.670Z,52.20
2016-08-12T08:14:28.534Z,52.30
2016-08-12T08:15:15.686Z,52.60
2016-08-12T08:16:27.454Z,52.30
2016-08-12T08:17:26.442Z,52.50
2016-08-12T08:18:26.851Z,52.40
2016-08-12T08:19:19.673Z,52.50
2016-08-12T08:20:20.676Z,52.40
2016-08-12T08:21:26.844Z,52.60
2016-08-12T08:22:22.647Z,52.60
2016-08-12T08:23:29.023Z,52.50
2016-08-12T08:24:22.540Z,53.10
2016-08-12T08:25:28.760Z,53.30
2016-08-12T08:26:20.029Z,53.20
2016-08-12T08:27:21.110Z,53.10
2016-08-12T08:28:26.500Z,53.20
2016-08-12T08:29:25.367Z,53.00
2016-08-12T08:30:20.256Z,53.10
2016-08-12T08:31:20.101Z,53.10
2016-08-12T08:32:21.837Z,53.50
2016-08-12T08:33:25.271Z,52.40
2016-08-12T08:34:25.029Z,53.50
2016-08-12T08:36:24.832Z,53.10
2016-08-12T08:37:26.260Z,is
2016-08-12T08:38:26.131Z,53.20
2016-08-12T08:39:27.523Z,53.10
2016-08-12T08:40:28.790Z,53.10
2016-08-12T08:41:30.383Z,53.10
2016-08-12T08:42:25.915Z,53.10
2016-08-12T08:43:26.515Z,53.10
2016-08-12T08:44:32.187Z,53.00
2016-08-12T08:45:30.887Z,53.10
2016-08-12T08:46:24.486Z,52.70
2016-08-12T08:47:28.467Z,53.00
2016-08-12T08:48:24.894Z,52.80
2016-08-12T08:49:29.479Z,52.80
2016-08-12T08:50:21.791Z,52.70
2016-08-12T08:51:27.501Z,52.90
2016-08-12T08:52:26.412Z,52.80
2016-08-12T08:53:23.824Z,53.00
2016-08-12T08:54:27.971Z,53.00
2016-08-12T08:55:26.086Z,52.70
2016-08-12T08:56:24.136Z,53.20
2016-08-12T08:57:27.246Z,53.40
2016-08-12T08:58:27.804Z,53.40
2016-08-12T08:59:28.891Z,53.20
2016-08-12T09:00:26.503Z,53.20
2016-08-12T09:01:26.448Z,53.00
2016-08-12T09:02:21.581Z,53.20
2016-08-12T09:03:27.319Z,53.20
2016-08-12T09:04:34.643Z,53.20
2016-08-12T09:05:26.455Z,53.00
2016-08-12T09:06:21.566Z,53.20
2016-08-12T09:07:24.898Z,53.10
2016-08-12T09:09:23.125Z,53.10
2016-08-12T09:10:24.616Z,53.10
2016-08-12T09:11:30.785Z,53.30
2016-08-12T09:13:30.220Z,53.20
2016-08-12T09:14:25.667Z,53.10
2016-08-12T09:15:25.800Z,52.90
2016-08-12T09:16:26.101Z,52.70
2016-08-12T09:17:31.396Z,52.80
2016-08-12T09:18:26.983Z,52.70
2016-08-12T09:19:34.088Z,52.70
2016-08-12T09:20:28.103Z,52.70
2016-08-12T09:21:27.534Z,53.10
2016-08-12T09:22:24.045Z,52.80
2016-08-12T09:23:25.586Z,52.70
2016-08-12T09:24:27.208Z,52.70
2016-08-12T09:25:34.565Z,52.70
2016-08-12T09:26:23.145Z,52.70
2016-08-12T09:27:21.582Z,52.70
2016-08-12T09:29:27.618Z,52.70
2016-08-12T09:31:39.680Z,52.60
2016-08-12T09:33:26.553Z,52.70
2016-08-12T09:34:27.039Z,52.60
2016-08-12T09:35:32.379Z,52.60
2016-08-12T09:36:20.952Z,52.60
2016-08-12T09:37:25.106Z,52.70
2016-08-12T09:38:24.882Z,52.50
2016-08-12T09:39:26.228Z,52.60
2016-08-12T09:40:20.003Z,52.60
2016-08-12T09:41:40.246Z,52.50
2016-08-12T09:43:27.756Z,52.60
2016-08-12T09:44:20.265Z,52.40
2016-08-12T09:45:23.825Z,52.60
2016-08-12T09:46:24.567Z,52.70
2016-08-12T09:47:20.720Z,52.70
2016-08-12T09:48:20.120Z,53.00
2016-08-12T09:49:25.113Z,53.00
2016-08-12T09:50:27.716Z,53.10
2016-08-12T09:51:25.741Z,52.90
2016-08-12T09:52:25.077Z,52.90
2016-08-12T09:54:33.205Z,53.10
2016-08-12T09:55:38.354Z,53.20
2016-08-12T09:56:29.404Z,53.20
2016-08-12T09:57:26.338Z,53.10
2016-08-12T09:58:26.455Z,53.20
2016-08-12T09:59:21.125Z,52.90
2016-08-12T10:00:26.951Z,53.20
2016-08-12T10:01:25.202Z,52.70
2016-08-12T10:02:21.861Z,52.80
2016-08-12T10:03:15.850Z,52.80
2016-08-12T10:04:22.604Z,52.90
2016-08-12T10:05:22.576Z,52.80
2016-08-12T10:06:23.142Z,52.90
2016-08-12T10:07:30.541Z,52.90
2016-08-12T10:08:30.136Z,52.90
2016-08-12T10:09:26.162Z,52.90
2016-08-12T10:10:26.448Z,53.00
2016-08-12T10:11:23.867Z,53.00
2016-08-12T10:12:22.456Z,53.00
2016-08-12T10:13:23.906Z,52.90
2016-08-12T10:14:25.976Z,52.00
2016-08-12T10:15:25.083Z,53.00
2016-08-12T10:16:31.318Z,53.00
2016-08-12T10:17:28.153Z,52.90
2016-08-12T10:18:31.577Z,53.00
2016-08-12T10:19:25.746Z,53.00
2016-08-12T10:21:26.069Z,53.10
2016-08-12T10:22:25.897Z,53.00
2016-08-12T10:23:33.663Z,53.00
2016-08-12T10:24:26.959Z,53.10
2016-08-12T10:25:26.697Z,52.90
2016-08-12T10:26:35.963Z,53.00
2016-08-12T10:27:31.618Z,53.00
2016-08-12T10:28:32.806Z,53.30
2016-08-12T10:29:20.572Z,53.30
2016-08-12T10:30:26.471Z,53.20
2016-08-12T10:31:47.148Z,53.30
2016-08-12T10:32:37.326Z,53.20
2016-08-12T10:33:20.181Z,53.20
2016-08-12T10:34:25.972Z,53.50
2016-08-12T10:36:26.680Z,53.20
2016-08-12T10:37:42.303Z,53.30
2016-08-12T10:38:27.317Z,53.20
2016-08-12T10:39:36.015Z,53.30
2016-08-12T10:40:20.515Z,52.30
2016-08-12T10:41:19.009Z,53.00
2016-08-12T10:42:30.113Z,53.20
2016-08-12T10:43:23.635Z,53.10
2016-08-12T10:44:34.933Z,53.10
2016-08-12T10:46:26.361Z,53.00
2016-08-12T10:47:27.204Z,53.00
2016-08-12T10:48:28.784Z,52.10
2016-08-12T10:51:26.210Z,53.10
2016-08-12T10:52:32.775Z,53.00
2016-08-12T10:53:28.433Z,53.00
2016-08-12T10:54:20.430Z,53.00
2016-08-12T10:55:26.886Z,53.20
2016-08-12T10:56:27.936Z,52.90
2016-08-12T10:57:32.995Z,53.00
2016-08-12T10:58:28.679Z,53.00
2016-08-12T10:59:19.978Z,53.00
2016-08-12T11:00:22.372Z,53.00
2016-08-12T11:01:27.641Z,53.00
2016-08-12T11:02:22.912Z,is
2016-08-12T11:03:34.012Z,53.00
2016-08-12T11:04:32.194Z,53.00
2016-08-12T11:06:38.914Z,53.00
2016-08-12T11:07:27.457Z,is
2016-08-12T11:08:26.783Z,53.00
2016-08-12T11:09:25.341Z,53.10
2016-08-12T11:10:34.295Z,53.00
2016-08-12T11:11:22.843Z,53.00
2016-08-12T11:12:22.999Z,53.00
2016-08-12T11:14:33.605Z,53.00
2016-08-12T11:15:20.302Z,53.40
2016-08-12T11:16:29.187Z,52.90
2016-08-12T11:17:31.808Z,53.00
2016-08-12T11:18:27.679Z,53.10
2016-08-12T11:19:31.132Z,53.00
2016-08-12T11:20:33.682Z,53.00
2016-08-12T11:21:25.277Z,53.20
2016-08-12T11:23:22.295Z,53.00
2016-08-12T11:24:40.858Z,53.50
2016-08-12T11:25:20.427Z,53.10
2016-08-12T11:26:30.100Z,53.30
2016-08-12T11:27:28.872Z,53.00
2016-08-12T11:28:32.334Z,53.00
2016-08-12T11:29:27.002Z,52.40
2016-08-12T11:30:21.299Z,53.00
2016-08-12T11:31:21.308Z,53.10
2016-08-12T11:32:28.948Z,53.20
2016-08-12T11:33:27.390Z,53.00
2016-08-12T11:34:21.794Z,53.20
2016-08-12T11:35:22.550Z,53.10
2016-08-12T11:36:21.034Z,53.20
2016-08-12T11:37:34.423Z,53.10
2016-08-12T11:38:22.200Z,53.70
2016-08-12T11:39:24.324Z,53.20
2016-08-12T11:40:42.801Z,53.10
2016-08-12T11:41:20.455Z,53.20
2016-08-12T11:42:34.832Z,53.20
2016-08-12T11:43:21.219Z,53.10
2016-08-12T11:44:21.370Z,53.20
2016-08-12T11:45:35.084Z,53.10
2016-08-12T11:46:28.933Z,53.10
2016-08-12T11:47:40.455Z,53.10
2016-08-12T11:48:24.178Z,53.10
2016-08-12T11:49:26.198Z,53.10
2016-08-12T11:50:36.101Z,53.00
2016-08-12T11:51:25.876Z,53.10
2016-08-12T11:52:26.220Z,53.00
2016-08-12T11:53:28.185Z,53.00
2016-08-12T11:54:25.589Z,53.00
2016-08-12T11:55:33.114Z,52.90
2016-08-12T11:56:35.500Z,53.00
2016-08-12T11:57:25.975Z,53.10
2016-08-12T11:58:24.619Z,53.00
2016-08-12T11:59:25.789Z,53.10
2016-08-12T12:00:35.592Z,53.00
2016-08-12T12:01:26.722Z,53.00
2016-08-12T12:02:20.434Z,53.00
2016-08-12T12:03:28.140Z,53.00
2016-08-12T12:04:32.133Z,53.00
2016-08-12T12:05:19.937Z,53.00
2016-08-12T12:06:28.179Z,53.00
2016-08-12T12:08:27.966Z,52.90
2016-08-12T12:09:32.806Z,53.10
2016-08-12T12:10:39.419Z,53.00
2016-08-12T12:11:27.157Z,53.10
2016-08-12T12:12:20.990Z,52.90
2016-08-12T12:13:34.558Z,53.00
2016-08-12T12:14:44.918Z,53.50
2016-08-12T12:15:27.521Z,53.00
2016-08-12T12:16:28.389Z,53.10
2016-08-12T12:17:27.979Z,53.20
2016-08-12T12:19:27.971Z,53.10
2016-08-12T12:20:30.503Z,53.10
2016-08-12T12:21:25.702Z,53.10
2016-08-12T12:22:29.927Z,53.10
2016-08-12T12:23:25.474Z,53.20
2016-08-12T12:25:28.561Z,53.10
2016-08-12T12:26:29.018Z,53.10
2016-08-12T12:27:26.580Z,53.20
2016-08-12T12:28:22.517Z,53.30
2016-08-12T12:31:23.306Z,53.10
2016-08-12T12:32:36.480Z,53.10
2016-08-12T12:33:25.396Z,53.00
2016-08-12T12:34:21.692Z,53.10
2016-08-12T12:35:27.123Z,53.20
2016-08-12T12:36:28.420Z,53.20
2016-08-12T12:37:26.952Z,52.90
2016-08-12T12:38:28.378Z,53.00
2016-08-12T12:39:35.370Z,53.10
2016-08-12T12:40:30.809Z,53.10
2016-08-12T12:41:20.131Z,53.00
2016-08-12T12:42:27.300Z,is
2016-08-12T12:43:31.015Z,53.20
2016-08-12T12:44:36.543Z,53.20
2016-08-12T12:45:37.630Z,53.10
2016-08-12T12:47:31.728Z,53.40
2016-08-12T12:48:34.820Z,53.50
2016-08-12T12:50:29.042Z,53.50
2016-08-12T12:51:30.057Z,53.50
2016-08-12T12:52:42.788Z,53.50
2016-08-12T12:54:28.213Z,53.70
2016-08-12T12:55:22.799Z,53.60
2016-08-12T12:56:21.346Z,53.60
2016-08-12T12:57:21.839Z,53.50
2016-08-12T12:59:34.817Z,53.50
2016-08-12T13:00:21.466Z,53.50
2016-08-12T13:01:32.735Z,52.90
2016-08-12T13:02:23.226Z,53.80
2016-08-12T13:03:28.386Z,53.70
2016-08-12T13:04:29.247Z,53.70
2016-08-12T13:05:25.337Z,53.80
2016-08-12T13:06:30.880Z,53.70
2016-08-12T13:07:24.988Z,53.80
2016-08-12T13:09:32.691Z,53.70
2016-08-12T13:10:26.162Z,53.70
2016-08-12T13:11:25.218Z,53.90
2016-08-12T13:12:26.205Z,53.80
2016-08-12T13:13:30.299Z,53.80
2016-08-12T13:14:41.461Z,53.70
2016-08-12T13:15:28.489Z,53.70
2016-08-12T13:16:30.441Z,53.70
2016-08-12T13:17:36.276Z,53.80
2016-08-12T13:18:30.845Z,53.70
2016-08-12T13:19:28.005Z,53.70
2016-08-12T13:20:20.514Z,53.70
2016-08-12T13:21:30.098Z,53.60
2016-08-12T13:22:30.245Z,53.80
2016-08-12T13:23:27.595Z,53.60
2016-08-12T13:24:25.126Z,53.80
2016-08-12T13:25:29.354Z,53.70
2016-08-12T13:26:28.038Z,53.70
2016-08-12T13:27:22.536Z,53.70
2016-08-12T13:28:25.132Z,54.00
2016-08-12T13:29:35.787Z,53.80
2016-08-12T13:30:24.807Z,53.90
2016-08-12T13:32:25.469Z,53.70
2016-08-12T13:33:31.328Z,53.70
2016-08-12T13:34:20.533Z,53.70
2016-08-12T13:35:32.312Z,53.70
2016-08-12T13:36:23.176Z,53.60
2016-08-12T13:37:47.534Z,53.60
2016-08-12T13:38:28.006Z,53.60
2016-08-12T13:39:25.966Z,53.60
2016-08-12T13:40:26.217Z,53.60
2016-08-12T13:41:18.737Z,53.60
2016-08-12T13:42:35.138Z,53.60
2016-08-12T13:43:20.687Z,53.70
2016-08-12T13:44:20.635Z,53.50
2016-08-12T13:45:30.873Z,53.70
2016-08-12T13:46:40.205Z,53.60
2016-08-12T13:47:41.045Z,53.70
2016-08-12T13:48:35.153Z,53.50
2016-08-12T13:49:25.411Z,53.50
2016-08-12T13:50:32.562Z,53.60
2016-08-12T13:51:25.557Z,53.50
2016-08-12T13:52:21.444Z,53.50
2016-08-12T13:53:34.585Z,53.60
2016-08-12T13:55:25.598Z,53.50
2016-08-12T13:56:25.903Z,53.50
2016-08-12T13:57:23.130Z,53.50
2016-08-12T13:58:25.924Z,53.60
2016-08-12T14:00:24.774Z,53.60
2016-08-12T14:01:30.346Z,53.60
2016-08-12T14:02:36.309Z,53.50
2016-08-12T14:04:26.575Z,53.50
2016-08-12T14:05:25.216Z,53.30
2016-08-12T14:06:25.631Z,53.40
2016-08-12T14:07:33.356Z,53.50